Time;durP1;ratioP1;P1;durP2;ratioP2;P2;SDS_P1;SDS_P2;PMS_P1;PMS_P2;Temp;Humidity;BMP_temperature;BMP_pressure;BME280_temperature;BME280_humidity;BME280_pressure;Samples;Min_cycle;Max_cycle;Signal;HPM_P1;HPM_P2
2021/12/08 00:01:48;;;;;;;42.30;21.10;;;;;;;-5.73;74.07;100172.09;104421;1315;109072;-67
2021/12/08 00:04:20;;;;;;;44.80;21.60;;;;;;;-5.73;74.25;100175.30;103716;1315;141172;-67
2021/12/08 00:06:52;;;;;;;43.10;21.80;;;;;;;-5.74;74.31;100173.27;104461;1312;95939;-67
2021/12/08 00:09:34;;;;;;;48.60;24.70;;;;;;;-5.75;74.30;100165.60;104386;1312;138311;-66
2021/12/08 00:15:06;;;;;;;48.40;24.20;;;;;;;-5.68;74.27;100170.07;103861;1321;138886;-66
2021/12/08 00:17:38;;;;;;;41.80;21.70;;;;;;;-5.70;74.23;100169.49;103955;1320;108033;-67
2021/12/08 00:20:12;;;;;;;45.20;22.90;;;;;;;-5.84;73.96;100173.27;103051;1325;97871;-66
2021/12/08 00:22:44;;;;;;;43.20;21.30;;;;;;;-6.00;74.23;100178.02;102971;1320;138828;-65
2021/12/08 00:25:16;;;;;;;42.80;20.90;;;;;;;-6.11;74.13;100173.60;103150;1321;112986;-66
2021/12/08 00:27:48;;;;;;;41.90;21.50;;;;;;;-6.13;74.53;100181.33;102781;1321;139458;-65
2021/12/08 00:30:21;;;;;;;41.00;21.00;;;;;;;-6.14;74.74;100181.80;103417;1321;108748;-66
2021/12/08 00:32:54;;;;;;;39.90;20.80;;;;;;;-6.15;74.81;100184.81;104022;1321;138673;-66
2021/12/08 00:35:27;;;;;;;41.60;20.90;;;;;;;-6.18;74.76;100190.78;104110;1322;96590;-66
2021/12/08 00:38:01;;;;;;;40.10;21.10;;;;;;;-6.21;74.77;100194.59;104147;1320;111422;-66
2021/12/08 00:40:33;;;;;;;45.80;22.00;;;;;;;-6.20;74.81;100196.64;103887;1321;138479;-66
2021/12/08 00:43:06;;;;;;;45.90;22.40;;;;;;;-6.17;74.89;100193.69;103640;1320;108799;-65
2021/12/08 00:45:39;;;;;;;49.00;23.90;;;;;;;-6.18;74.99;100194.33;103035;1321;138764;-66
2021/12/08 00:48:11;;;;;;;42.50;22.00;;;;;;;-6.24;75.05;100197.03;102772;1321;98075;-65
2021/12/08 00:50:43;;;;;;;40.00;21.20;;;;;;;-6.22;75.21;100199.48;102712;1322;139789;-65
2021/12/08 00:53:16;;;;;;;40.50;21.20;;;;;;;-6.15;75.13;100201.06;104229;1313;108059;-66
2021/12/08 00:55:49;;;;;;;40.90;21.40;;;;;;;-6.13;75.05;100196.88;103873;1316;109530;-66
2021/12/08 00:58:21;;;;;;;40.90;21.00;;;;;;;-6.07;75.33;100195.56;103062;1317;138494;-66
2021/12/08 01:00:55;;;;;;;36.50;20.20;;;;;;;-6.02;75.04;100190.64;103058;1315;97789;-67
2021/12/08 01:03:27;;;;;;;46.40;23.00;;;;;;;-5.99;75.12;100188.05;103493;1316;138921;-67
2021/12/08 01:05:59;;;;;;;41.90;21.80;;;;;;;-5.95;75.15;100187.16;103042;1315;109208;-66
2021/12/08 01:08:33;;;;;;;45.10;22.40;;;;;;;-5.92;74.94;100185.25;104358;1316;108829;-65
2021/12/08 01:11:10;;;;;;;40.30;22.10;;;;;;;-5.95;74.82;100189.04;104337;1316;138372;-66
2021/12/08 01:13:42;;;;;;;43.20;22.00;;;;;;;-6.03;74.71;100196.38;104139;1318;96563;-66
2021/12/08 01:16:17;;;;;;;40.10;21.10;;;;;;;-6.10;74.83;100191.73;103027;1315;139018;-68
2021/12/08 01:18:50;;;;;;;39.80;21.20;;;;;;;-6.15;74.91;100185.48;104375;1315;108902;-66
2021/12/08 01:21:22;;;;;;;34.90;19.70;;;;;;;-6.17;74.75;100183.20;104282;1316;139814;-66
2021/12/08 01:23:54;;;;;;;39.20;20.50;;;;;;;-6.16;75.01;100178.16;104342;1318;97103;-66
2021/12/08 01:26:27;;;;;;;40.40;21.30;;;;;;;-6.14;75.14;100181.28;104394;1318;95966;-66
2021/12/08 01:28:59;;;;;;;47.20;23.70;;;;;;;-6.18;75.04;100181.13;104271;1316;137871;-66
2021/12/08 01:31:31;;;;;;;48.80;24.20;;;;;;;-6.25;74.99;100179.05;103947;1316;108776;-68
2021/12/08 01:34:04;;;;;;;47.30;24.20;;;;;;;-6.30;75.21;100184.61;103463;1317;140588;-66
2021/12/08 01:36:36;;;;;;;47.70;24.90;;;;;;;-6.32;75.32;100181.50;104389;1316;95978;-66
2021/12/08 01:39:09;;;;;;;46.80;24.10;;;;;;;-6.29;75.47;100175.34;103207;1320;138990;-67
2021/12/08 01:41:41;;;;;;;47.00;24.40;;;;;;;-6.24;75.49;100177.22;103030;1320;112481;-66
2021/12/08 01:47:03;;;;;;;47.80;25.10;;;;;;;-6.19;75.60;100173.51;104327;1317;138790;-66
2021/12/08 01:49:35;;;;;;;47.70;25.20;;;;;;;-6.17;75.72;100173.38;103887;1316;96007;-66
2021/12/08 01:52:08;;;;;;;53.30;25.90;;;;;;;-6.17;75.35;100168.30;104362;1317;138168;-66
2021/12/08 01:54:40;;;;;;;51.10;26.70;;;;;;;-6.16;75.56;100162.77;104508;1315;112539;-67
2021/12/08 01:57:12;;;;;;;53.30;26.50;;;;;;;-6.18;75.64;100156.11;104360;1315;138599;-67
2021/12/08 01:59:44;;;;;;;46.50;24.90;;;;;;;-6.23;75.63;100145.79;104464;1316;108831;-65
2021/12/08 02:02:17;;;;;;;50.80;26.30;;;;;;;-6.28;75.71;100142.09;104422;1316;96881;-66
2021/12/08 02:04:50;;;;;;;47.50;25.80;;;;;;;-6.25;75.77;100136.23;104416;1315;139079;-66
2021/12/08 02:07:22;;;;;;;50.00;26.90;;;;;;;-6.22;76.00;100127.73;104495;1313;113549;-66
2021/12/08 02:09:54;;;;;;;48.70;26.70;;;;;;;-6.22;76.11;100126.52;103368;1315;138445;-67
2021/12/08 02:12:26;;;;;;;52.50;28.20;;;;;;;-6.28;76.35;100119.23;104179;1316;109295;-66
2021/12/08 02:15:00;;;;;;;54.00;28.40;;;;;;;-6.31;76.25;100113.68;104384;1316;138624;-66
2021/12/08 02:17:32;;;;;;;57.80;29.40;;;;;;;-6.30;76.27;100110.16;103587;1315;97901;-67
2021/12/08 02:20:09;;;;;;;58.10;29.00;;;;;;;-6.30;76.42;100110.19;104220;1317;112490;-67
2021/12/08 02:22:42;;;;;;;52.00;27.40;;;;;;;-6.29;76.32;100109.05;104008;1315;139174;-67
2021/12/08 02:25:19;;;;;;;50.80;26.70;;;;;;;-6.21;76.54;100115.56;103211;1315;108774;-67
2021/12/08 02:27:52;;;;;;;47.50;26.20;;;;;;;-6.17;76.53;100113.65;103637;1316;138933;-67
2021/12/08 02:30:31;;;;;;;49.30;25.40;;;;;;;-6.15;76.28;100116.76;103292;1317;98015;-67
2021/12/08 02:47:31;;;;;;;51.50;26.30;;;;;;;-6.31;76.31;100108.60;104344;1315;138798;-67
2021/12/08 02:50:03;;;;;;;54.30;27.00;;;;;;;-6.29;76.48;100101.92;104452;1315;108657;-67
2021/12/08 02:52:35;;;;;;;52.40;26.80;;;;;;;-6.22;76.56;100099.46;104357;1315;138811;-67
2021/12/08 02:55:09;;;;;;;51.50;27.30;;;;;;;-6.18;76.58;100104.84;104491;1316;96011;-67
2021/12/08 02:57:41;;;;;;;52.80;27.30;;;;;;;-6.16;76.39;100102.70;104301;1315;138763;-67
2021/12/08 03:00:18;;;;;;;54.60;28.90;;;;;;;-6.13;76.32;100106.67;103665;1315;112640;-67
2021/12/08 03:02:48;;;;;;;;;;;;;;;-6.12;76.29;100111.45;103361;1318;109231;-67
2021/12/08 03:05:20;;;;;;;48.90;25.20;;;;;;;-6.09;76.34;100113.94;104005;1315;124576;-67
2021/12/08 03:07:53;;;;;;;51.60;26.40;;;;;;;-6.07;76.17;100114.66;103219;1314;97854;-67
2021/12/08 03:10:31;;;;;;;46.70;26.20;;;;;;;-6.13;76.09;100116.33;102924;1315;138315;-67
2021/12/08 03:13:03;;;;;;;50.80;26.80;;;;;;;-6.16;76.16;100119.61;103824;1315;111068;-67
2021/12/08 03:15:35;;;;;;;52.00;25.40;;;;;;;-6.15;76.22;100120.82;103130;1314;139724;-67
2021/12/08 03:18:08;;;;;;;43.70;23.20;;;;;;;-6.12;76.18;100119.77;103754;1315;108535;-67
2021/12/08 03:20:41;;;;;;;42.70;23.30;;;;;;;-6.07;76.13;100120.58;103287;1315;97919;-67
2021/12/08 03:23:28;;;;;;;40.20;22.40;;;;;;;-6.02;76.07;100118.20;103093;1314;140019;-67
2021/12/08 03:26:03;;;;;;;43.30;23.10;;;;;;;-5.99;76.05;100117.27;103787;1316;112355;-67
2021/12/08 03:28:41;;;;;;;40.00;22.50;;;;;;;-6.05;75.73;100123.68;103899;1314;138566;-67
2021/12/08 03:31:17;;;;;;;45.00;23.80;;;;;;;-6.20;75.98;100126.25;103342;1313;108766;-67
2021/12/08 03:33:50;;;;;;;42.40;22.90;;;;;;;-6.33;75.84;100122.95;104439;1315;138733;-67
2021/12/08 03:36:22;;;;;;;45.00;24.50;;;;;;;-6.39;76.12;100127.96;103889;1315;98072;-67
2021/12/08 03:38:54;;;;;;;44.50;24.30;;;;;;;-6.44;76.33;100125.64;103435;1316;112285;-66
2021/12/08 03:41:31;;;;;;;42.00;22.90;;;;;;;-6.47;76.47;100123.81;103145;1314;139132;-66
2021/12/08 03:44:05;;;;;;;38.40;22.10;;;;;;;-6.47;76.48;100120.79;103536;1313;108797;-66
2021/12/08 03:46:41;;;;;;;44.10;23.50;;;;;;;-6.44;76.67;100120.90;103745;1317;139065;-67
2021/12/08 03:49:17;;;;;;;30.90;17.10;;;;;;;-6.40;76.65;100121.35;104219;1315;97860;-67
2021/12/08 03:51:49;;;;;;;41.60;22.50;;;;;;;-6.40;76.66;100111.55;103479;1317;139718;-66
2021/12/08 03:54:21;;;;;;;43.70;22.60;;;;;;;-6.39;76.65;100102.62;104500;1315;109260;-67
2021/12/08 03:56:53;;;;;;;35.90;21.10;;;;;;;-6.34;76.70;100101.73;103575;1315;108129;-67
2021/12/08 03:59:25;;;;;;;39.30;21.70;;;;;;;-6.30;76.71;100098.83;104454;1312;138613;-67
2021/12/08 04:01:57;;;;;;;37.90;21.40;;;;;;;-6.29;76.69;100098.36;104197;1313;97850;-67
2021/12/08 04:04:30;;;;;;;39.80;22.00;;;;;;;-6.34;76.63;100090.91;103831;1311;138326;-67
2021/12/08 04:07:03;;;;;;;38.00;20.90;;;;;;;-6.38;76.64;100087.91;103909;1314;108235;-66
2021/12/08 04:09:39;;;;;;;41.20;22.10;;;;;;;-6.47;76.69;100087.80;103085;1314;138428;-66
2021/12/08 04:12:10;;;;;;;;;;;;;;;-6.53;76.86;100094.86;104277;1317;97063;-67
2021/12/08 04:14:47;;;;;;;40.00;21.20;;;;;;;-6.60;76.87;100097.19;104577;1316;96482;-67
2021/12/08 04:17:23;;;;;;;38.60;21.10;;;;;;;-6.64;77.16;100090.78;104087;1314;138651;-67
2021/12/08 04:19:58;;;;;;;32.70;17.30;;;;;;;-6.65;77.20;100088.52;103592;1313;108784;-66
2021/12/08 04:22:35;;;;;;;39.00;20.80;;;;;;;-6.67;77.43;100083.21;103654;1313;140586;-66
2021/12/08 04:25:10;;;;;;;36.90;19.80;;;;;;;-6.66;77.34;100069.89;103331;1314;97858;-66
2021/12/08 04:27:44;;;;;;;39.60;20.20;;;;;;;-6.59;77.53;100063.05;104476;1314;139067;-66
2021/12/08 04:30:26;;;;;;;40.40;20.40;;;;;;;-6.51;77.54;100067.20;104602;1316;113380;-67
2021/12/08 04:32:59;;;;;;;38.50;21.10;;;;;;;-6.43;77.35;100065.43;104619;1314;108049;-67
2021/12/08 04:35:32;;;;;;;42.50;21.60;;;;;;;-6.41;77.10;100064.84;104255;1317;137936;-67
2021/12/08 04:38:17;;;;;;;37.60;21.60;;;;;;;-6.44;77.15;100065.09;103639;1315;97951;-67
2021/12/08 04:41:01;;;;;;;37.40;20.80;;;;;;;-6.51;76.88;100065.83;103021;1316;138554;-67
2021/12/08 04:43:46;;;;;;;38.70;22.40;;;;;;;-6.59;77.16;100069.14;103561;1321;111513;-67
2021/12/08 04:46:30;;;;;;;38.60;21.30;;;;;;;-6.69;77.15;100068.61;104373;1315;141193;-67
2021/12/08 04:49:24;;;;;;;38.90;20.80;;;;;;;-6.73;77.19;100062.42;104542;1316;107743;-67
2021/12/08 04:52:04;;;;;;;41.00;22.00;;;;;;;-6.70;77.23;100064.02;104222;1315;140789;-67
2021/12/08 05:00:44;;;;;;;37.20;19.20;;;;;;;-6.83;77.33;100073.73;103599;1315;108950;-67
2021/12/08 05:03:42;;;;;;;38.60;20.50;;;;;;;-6.80;77.78;100076.89;103612;1315;140583;-67
2021/12/08 05:06:25;;;;;;;41.90;22.20;;;;;;;-6.84;77.61;100075.54;103268;1314;97861;-66
2021/12/08 05:08:58;;;;;;;47.00;22.50;;;;;;;-6.91;77.87;100073.95;103527;1317;97955;-66
2021/12/08 05:11:34;;;;;;;39.20;22.30;;;;;;;-6.98;77.91;100067.95;103729;1315;139640;-67
2021/12/08 05:14:11;;;;;;;40.10;22.40;;;;;;;-7.04;78.17;100064.55;103379;1313;107963;-68
2021/12/08 05:16:42;;;;;;;;;;;;;;;-7.09;78.19;100055.07;104372;1315;139092;-67
2021/12/08 05:19:18;;;;;;;40.10;21.40;;;;;;;-7.12;78.44;100060.04;104483;1315;96146;-66
2021/12/08 05:21:51;;;;;;;;;;;;;;;-7.09;78.46;100061.48;103939;1315;139135;-67
2021/12/08 05:24:28;;;;;;;41.40;23.00;;;;;;;-7.01;78.40;100060.92;103267;1313;112464;-66
2021/12/08 05:27:04;;;;;;;39.80;22.10;;;;;;;-6.93;78.39;100067.14;103242;1314;108897;-66
2021/12/08 05:29:39;;;;;;;43.20;23.40;;;;;;;-6.85;78.27;100074.51;103805;1314;138205;-66
2021/12/08 05:32:12;;;;;;;42.40;23.20;;;;;;;-6.85;78.08;100077.53;103604;1313;97768;-67
2021/12/08 05:34:45;;;;;;;46.50;25.40;;;;;;;-6.88;77.82;100075.08;103911;1315;138471;-66
2021/12/08 05:37:20;;;;;;;40.80;21.40;;;;;;;-6.90;77.73;100084.11;103403;1315;112674;-66
2021/12/08 05:39:53;;;;;;;37.00;21.70;;;;;;;-6.99;77.37;100078.77;104329;1316;139239;-67
2021/12/08 05:42:35;;;;;;;35.20;20.50;;;;;;;-7.06;77.27;100077.13;104592;1313;108928;-67
2021/12/08 05:45:15;;;;;;;38.00;20.20;;;;;;;-7.06;77.45;100079.15;104523;1315;95765;-67
2021/12/08 05:47:49;;;;;;;39.60;22.10;;;;;;;-7.07;77.35;100080.31;104194;1316;138023;-67
2021/12/08 05:50:27;;;;;;;37.10;22.20;;;;;;;-7.04;77.44;100081.95;104308;1313;112624;-67
2021/12/08 05:52:59;;;;;;;34.70;20.20;;;;;;;-7.05;76.96;100086.13;104460;1312;139434;-67
2021/12/08 05:55:33;;;;;;;33.80;19.60;;;;;;;-7.13;76.51;100083.98;104593;1314;108170;-67
2021/12/08 05:58:07;;;;;;;33.10;20.00;;;;;;;-7.19;76.40;100080.21;104373;1316;138663;-67
2021/12/08 06:00:43;;;;;;;29.50;17.90;;;;;;;-7.22;76.40;100075.72;104567;1314;95769;-67
2021/12/08 06:03:17;;;;;;;29.70;18.30;;;;;;;-7.27;76.27;100069.59;104533;1316;112455;-67
2021/12/08 06:05:51;;;;;;;31.60;18.40;;;;;;;-7.32;75.92;100070.65;104346;1315;138518;-67
2021/12/08 06:08:24;;;;;;;38.60;20.90;;;;;;;-7.38;75.71;100067.71;104567;1315;108862;-67
2021/12/08 06:10:58;;;;;;;40.30;21.40;;;;;;;-7.40;75.70;100068.14;104454;1316;138214;-67
2021/12/08 06:13:30;;;;;;;38.50;20.80;;;;;;;-7.49;75.42;100069.84;104315;1314;97808;-67
2021/12/08 06:16:05;;;;;;;36.30;20.70;;;;;;;-7.56;75.67;100069.58;104325;1313;139772;-67
2021/12/08 06:18:39;;;;;;;35.60;20.80;;;;;;;-7.61;75.59;100058.61;104596;1316;107716;-66
2021/12/08 06:21:16;;;;;;;36.00;19.70;;;;;;;-7.57;75.96;100062.92;104462;1315;108115;-67
2021/12/08 06:23:50;;;;;;;34.00;20.00;;;;;;;-7.52;75.94;100061.14;103808;1313;139146;-66
2021/12/08 06:26:25;;;;;;;36.00;20.40;;;;;;;-7.45;75.83;100062.73;104485;1315;96057;-67
2021/12/08 06:28:58;;;;;;;43.40;20.90;;;;;;;-7.38;75.80;100067.89;103488;1315;138275;-66
2021/12/08 06:31:33;;;;;;;35.60;20.90;;;;;;;-7.35;75.57;100079.98;103259;1315;108981;-66
2021/12/08 06:34:05;;;;;;;36.20;19.10;;;;;;;-7.34;75.09;100085.77;103136;1314;138929;-66
2021/12/08 06:36:44;;;;;;;34.10;19.80;;;;;;;-7.40;74.81;100091.95;103307;1312;150555;-65
2021/12/08 06:39:20;;;;;;;37.10;19.80;;;;;;;-7.47;74.54;100095.58;104579;1313;95963;-66
2021/12/08 06:41:55;;;;;;;35.00;17.70;;;;;;;-7.62;74.41;100101.59;103680;1313;138688;-66
2021/12/08 06:44:30;;;;;;;33.80;18.20;;;;;;;-7.76;74.45;100098.70;104569;1313;107660;-67
2021/12/08 06:47:05;;;;;;;33.00;17.00;;;;;;;-7.82;74.42;100103.36;103238;1314;139922;-66
2021/12/08 06:49:37;;;;;;;28.90;16.30;;;;;;;-7.86;74.51;100106.73;103733;1315;97762;-66
2021/12/08 06:52:12;;;;;;;31.40;17.50;;;;;;;-7.89;74.45;100112.54;103962;1313;139305;-68
2021/12/08 06:54:48;;;;;;;29.50;15.80;;;;;;;-7.86;74.91;100113.33;103327;1315;112447;-65
2021/12/08 06:57:25;;;;;;;29.80;16.90;;;;;;;-7.80;74.48;100120.63;104011;1316;109016;-67
2021/12/08 07:00:00;;;;;;;28.70;17.20;;;;;;;-7.82;74.42;100119.20;103380;1316;139804;-66
2021/12/08 07:02:58;;;;;;;28.00;16.10;;;;;;;-7.81;74.41;100117.91;104535;1314;96064;-66
2021/12/08 07:06:03;;;;;;;28.40;15.10;;;;;;;-7.80;74.43;100123.86;103670;1314;138610;-66
2021/12/08 07:08:28;;;;;;;28.70;16.00;;;;;;;-7.78;74.36;100134.58;104499;1316;112594;-66
2021/12/08 07:11:00;;;;;;;30.60;16.30;;;;;;;-7.74;74.41;100139.61;103574;1314;139999;-66
2021/12/08 07:13:35;;;;;;;26.80;15.70;;;;;;;-7.72;74.30;100143.59;104134;1315;108955;-66
2021/12/08 07:16:33;;;;;;;28.60;14.80;;;;;;;-7.70;74.23;100145.02;103480;1319;139392;-66
2021/12/08 07:19:11;;;;;;;30.40;16.00;;;;;;;-7.67;74.35;100150.89;103436;1313;97986;-67
2021/12/08 07:21:46;;;;;;;27.20;16.10;;;;;;;-7.62;74.45;100149.89;104063;1315;139093;-66
2021/12/08 07:24:23;;;;;;;29.10;16.10;;;;;;;-7.54;74.35;100142.77;103302;1315;109099;-66
2021/12/08 07:26:59;;;;;;;29.60;15.60;;;;;;;-7.46;74.35;100143.42;103566;1316;109276;-66
2021/12/08 07:29:35;;;;;;;29.60;15.30;;;;;;;-7.37;74.46;100137.52;103306;1316;139546;-66
2021/12/08 07:32:10;;;;;;;25.00;14.30;;;;;;;-7.31;74.12;100133.70;103273;1313;97952;-66
2021/12/08 07:34:43;;;;;;;27.30;14.10;;;;;;;-7.26;74.06;100138.23;103862;1314;139123;-67
2021/12/08 07:37:21;;;;;;;27.20;13.90;;;;;;;-7.23;73.84;100138.16;103718;1313;108681;-66
2021/12/08 07:39:58;;;;;;;23.00;13.80;;;;;;;-7.18;73.86;100134.29;104121;1314;139153;-66
2021/12/08 07:42:35;;;;;;;28.60;15.30;;;;;;;-7.14;73.56;100128.23;104466;1315;96145;-66
2021/12/08 07:45:12;;;;;;;28.80;14.40;;;;;;;-7.16;73.09;100119.53;103489;1323;96339;-66
2021/12/08 07:47:44;;;;;;;29.40;15.80;;;;;;;-7.17;73.42;100113.42;104442;1317;139520;-66
2021/12/08 07:50:26;;;;;;;25.90;14.80;;;;;;;-7.13;73.47;100108.17;104577;1310;108916;-66
2021/12/08 07:53:00;;;;;;;28.20;15.00;;;;;;;-7.10;73.00;100108.09;104348;1315;139083;-67
2021/12/08 07:55:36;;;;;;;24.20;13.70;;;;;;;-7.16;72.78;100113.30;104459;1315;95973;-67
2021/12/08 07:58:10;;;;;;;30.40;16.50;;;;;;;-7.16;73.11;100119.37;104365;1313;138841;-68
2021/12/08 08:00:46;;;;;;;31.30;15.90;;;;;;;-7.14;72.97;100126.89;104483;1314;112657;-66
2021/12/08 08:03:19;;;;;;;25.10;13.10;;;;;;;-7.14;73.14;100133.98;104542;1315;107148;-67
2021/12/08 08:05:53;;;;;;;30.50;15.60;;;;;;;-7.11;73.18;100136.27;104406;1313;138481;-68
2021/12/08 08:08:30;;;;;;;26.40;15.80;;;;;;;-7.06;73.34;100129.53;103477;1321;96073;-68
2021/12/08 08:11:06;;;;;;;30.10;15.80;;;;;;;-6.97;73.19;100126.98;103424;1315;138998;-68
2021/12/08 08:13:38;;;;;;;26.40;14.60;;;;;;;-6.90;73.23;100129.58;103148;1313;112810;-67
2021/12/08 08:16:16;;;;;;;28.30;14.90;;;;;;;-6.88;72.75;100133.21;103029;1315;139044;-68
2021/12/08 08:18:55;;;;;;;27.70;15.20;;;;;;;-6.91;72.65;100131.07;103246;1315;109035;-68
2021/12/08 08:21:32;;;;;;;26.60;14.40;;;;;;;-6.89;73.16;100130.80;103123;1315;97975;-68
2021/12/08 08:24:03;;;;;;;;;;;;;;;-6.80;72.95;100135.22;103057;1313;138618;-68
2021/12/08 08:26:36;;;;;;;24.90;13.90;;;;;;;-6.79;72.71;100132.20;103066;1317;112742;-67
2021/12/08 08:29:11;;;;;;;30.50;15.90;;;;;;;-6.79;72.68;100131.03;103478;1312;139740;-69
2021/12/08 08:31:48;;;;;;;30.40;15.40;;;;;;;-6.74;72.81;100122.39;103311;1322;108131;-69
2021/12/08 08:34:20;;;;;;;27.50;15.70;;;;;;;-6.66;72.82;100119.09;103482;1320;139463;-68
2021/12/08 08:36:53;;;;;;;27.40;15.70;;;;;;;-6.60;72.48;100119.83;104579;1311;95968;-69
2021/12/08 08:39:29;;;;;;;31.10;16.30;;;;;;;-6.58;72.50;100114.67;104550;1316;112670;-70
2021/12/08 08:42:07;;;;;;;29.00;15.40;;;;;;;-6.50;72.52;100114.73;104047;1315;138507;-69
2021/12/08 08:44:44;;;;;;;30.50;15.70;;;;;;;-6.41;72.30;100106.95;104541;1315;108271;-67
2021/12/08 08:47:22;;;;;;;29.60;15.40;;;;;;;-6.32;72.08;100106.73;103866;1315;138891;-68
2021/12/08 08:49:58;;;;;;;29.20;15.00;;;;;;;-6.26;72.09;100104.39;104431;1312;97404;-70
2021/12/08 08:52:35;;;;;;;30.10;15.70;;;;;;;-6.22;71.46;100098.77;103956;1315;139344;-69
2021/12/08 08:55:16;;;;;;;31.20;15.60;;;;;;;-6.19;71.55;100090.25;104539;1312;108964;-69
2021/12/08 08:57:49;;;;;;;30.80;16.20;;;;;;;-6.11;71.64;100086.44;104444;1315;138960;-68
2021/12/08 09:00:26;;;;;;;30.10;16.00;;;;;;;-6.06;71.46;100072.20;103381;1315;97844;-69
2021/12/08 09:03:03;;;;;;;28.50;16.00;;;;;;;-6.01;71.39;100075.07;103016;1315;98056;-67
2021/12/08 09:05:39;;;;;;;28.60;15.90;;;;;;;-5.99;71.03;100071.24;103012;1315;138640;-69
2021/12/08 09:08:18;;;;;;;30.90;15.90;;;;;;;-5.93;71.48;100069.20;103139;1314;109258;-68
2021/12/08 09:10:53;;;;;;;32.60;16.00;;;;;;;-5.80;71.46;100066.55;104369;1315;139154;-69
2021/12/08 09:13:30;;;;;;;33.40;16.40;;;;;;;-5.69;71.45;100061.83;103652;1316;96100;-67
2021/12/08 09:16:06;;;;;;;31.70;16.80;;;;;;;-5.57;71.35;100053.53;104459;1315;138960;-67
2021/12/08 09:18:49;;;;;;;30.70;15.70;;;;;;;-5.51;70.06;100049.99;104540;1313;111643;-67
2021/12/08 09:21:29;;;;;;;31.30;16.80;;;;;;;-5.57;69.93;100046.39;104509;1315;109408;-68
2021/12/08 09:24:07;;;;;;;32.70;17.30;;;;;;;-5.60;70.17;100043.95;104444;1313;138578;-67
2021/12/08 09:26:44;;;;;;;27.60;16.20;;;;;;;-5.53;70.28;100047.20;104537;1315;96054;-67
2021/12/08 09:29:20;;;;;;;32.30;16.50;;;;;;;-5.49;70.07;100045.63;103715;1315;139215;-67
2021/12/08 09:32:04;;;;;;;29.30;15.90;;;;;;;-5.44;69.84;100043.55;104555;1315;112668;-67
2021/12/08 09:34:41;;;;;;;31.90;16.90;;;;;;;-5.42;70.05;100047.15;103849;1316;139081;-66
2021/12/08 09:37:17;;;;;;;31.50;17.10;;;;;;;-5.39;69.90;100051.84;103940;1315;108813;-67
2021/12/08 09:39:52;;;;;;;29.20;17.10;;;;;;;-5.35;70.17;100047.03;103020;1319;140239;-68
2021/12/08 09:42:32;;;;;;;30.80;16.40;;;;;;;-5.36;69.95;100048.89;102994;1315;97833;-68
2021/12/08 09:45:14;;;;;;;33.50;17.70;;;;;;;-5.46;69.85;100039.93;103063;1315;111500;-68
2021/12/08 09:47:46;;;;;;;31.90;17.20;;;;;;;-5.56;70.24;100030.54;104418;1316;138920;-68
2021/12/08 09:50:18;;;;;;;31.80;17.70;;;;;;;-5.59;70.27;100015.34;104296;1318;108979;-68
2021/12/08 09:52:51;;;;;;;32.60;17.60;;;;;;;-5.65;70.51;100001.11;104411;1315;139494;-69
2021/12/08 09:55:23;;;;;;;30.90;17.10;;;;;;;-5.66;70.66;99990.25;104553;1316;96253;-67
2021/12/08 09:57:56;;;;;;;30.70;17.00;;;;;;;-5.59;70.85;99987.40;104433;1311;140128;-69
2021/12/08 10:00:31;;;;;;;30.10;16.50;;;;;;;-5.48;71.04;99990.58;104549;1316;108912;-68
2021/12/08 10:03:05;;;;;;;33.20;17.20;;;;;;;-5.35;71.09;99989.77;104513;1315;109134;-68
2021/12/08 10:05:39;;;;;;;35.70;17.60;;;;;;;-5.18;70.90;99986.17;103354;1315;138867;-68
2021/12/08 10:08:13;;;;;;;28.80;16.80;;;;;;;-5.06;70.68;99985.27;103178;1315;97856;-67
2021/12/08 10:10:47;;;;;;;32.90;17.20;;;;;;;-4.97;70.36;99986.20;103053;1316;140345;-67
2021/12/08 10:13:20;;;;;;;30.80;16.90;;;;;;;-4.99;69.69;99992.44;103136;1315;108478;-67
2021/12/08 10:15:53;;;;;;;33.10;17.20;;;;;;;-5.04;69.79;99989.06;103042;1315;138819;-67
2021/12/08 10:18:25;;;;;;;35.60;17.50;;;;;;;-5.01;70.19;99991.03;103160;1316;97925;-67
2021/12/08 10:20:58;;;;;;;32.30;16.70;;;;;;;-5.03;70.17;100000.79;103534;1316;96095;-67
2021/12/08 10:23:34;;;;;;;32.40;17.10;;;;;;;-5.07;70.04;99993.39;103507;1313;138502;-67
2021/12/08 10:26:09;;;;;;;30.70;16.90;;;;;;;-5.10;70.18;99990.09;104527;1315;108927;-67
2021/12/08 10:28:43;;;;;;;38.40;17.50;;;;;;;-5.09;70.35;99991.46;104393;1316;139045;-67
2021/12/08 10:31:18;;;;;;;30.80;17.30;;;;;;;-5.02;70.66;99993.20;103820;1316;95921;-68
2021/12/08 10:34:04;;;;;;;30.00;17.30;;;;;;;-4.94;70.32;100007.33;102975;1315;139035;-67
2021/12/08 10:36:46;;;;;;;36.20;19.00;;;;;;;-4.86;70.95;100009.02;104440;1316;112748;-66
2021/12/08 10:39:24;;;;;;;34.80;18.60;;;;;;;-4.78;70.56;100003.98;104520;1316;108992;-67
2021/12/08 10:42:01;;;;;;;39.40;20.30;;;;;;;-4.72;70.97;99996.99;103324;1320;139874;-67
2021/12/08 10:44:55;;;;;;;43.20;20.10;;;;;;;-4.64;70.84;99990.62;104526;1315;96171;-67
2021/12/08 10:47:35;;;;;;;40.50;21.50;;;;;;;-4.65;70.03;99983.12;104410;1315;140038;-67
2021/12/08 10:55:59;;;;;;;37.90;19.20;;;;;;;-4.95;70.53;99981.18;104464;1315;109001;-67
2021/12/08 10:58:33;;;;;;;38.50;19.90;;;;;;;-5.00;70.91;99980.89;104405;1315;138620;-68
2021/12/08 11:01:16;;;;;;;40.30;21.40;;;;;;;-5.04;71.12;99977.52;103558;1318;95992;-68
2021/12/08 11:03:51;;;;;;;38.70;20.10;;;;;;;-5.04;71.56;99981.77;103984;1315;141775;-67
2021/12/08 11:06:23;;;;;;;37.30;18.40;;;;;;;-5.07;71.36;99979.98;103150;1316;109890;-67
2021/12/08 11:08:56;;;;;;;37.80;17.80;;;;;;;-5.11;71.43;99966.69;103088;1315;109054;-67
2021/12/08 11:11:32;;;;;;;37.50;18.00;;;;;;;-5.13;71.55;99965.44;103747;1317;140280;-67
2021/12/08 11:14:07;;;;;;;37.10;18.30;;;;;;;-5.09;71.72;99963.49;103129;1315;98573;-67
2021/12/08 11:16:41;;;;;;;33.90;17.70;;;;;;;-5.02;71.90;99962.35;103115;1316;138927;-65
2021/12/08 11:19:19;;;;;;;37.40;19.00;;;;;;;-4.89;72.09;99964.52;103220;1316;108924;-67
2021/12/08 11:21:55;;;;;;;39.70;20.70;;;;;;;-4.84;71.54;99953.14;103032;1315;139356;-67
2021/12/08 11:24:32;;;;;;;;;;;;;;;-4.84;71.74;99952.11;103092;1319;97863;-67
2021/12/08 11:27:07;;;;;;;45.10;20.80;;;;;;;-4.81;71.78;99948.13;103152;1319;97987;-66
2021/12/08 11:29:42;;;;;;;41.30;20.90;;;;;;;-4.85;71.57;99943.59;104070;1316;139239;-66
2021/12/08 11:32:22;;;;;;;44.00;21.20;;;;;;;-4.88;71.73;99935.23;104555;1315;108861;-67
2021/12/08 11:34:59;;;;;;;37.40;19.60;;;;;;;-4.81;71.91;99928.95;104035;1315;139702;-67
2021/12/08 11:37:35;;;;;;;37.50;20.10;;;;;;;-4.77;72.03;99926.51;103190;1315;97858;-66
2021/12/08 11:40:18;;;;;;;37.70;19.60;;;;;;;-4.73;72.29;99928.29;103062;1314;138275;-68
2021/12/08 11:42:53;;;;;;;;;;;;;;;-4.66;72.20;99927.27;104531;1319;112745;-72
2021/12/08 11:45:26;;;;;;;37.30;18.50;;;;;;;-4.58;71.83;99930.02;104465;1315;109092;-68
2021/12/08 11:47:58;;;;;;;40.60;18.70;;;;;;;-4.52;71.87;99926.22;104364;1315;138454;-68
2021/12/08 11:50:32;;;;;;;33.90;17.70;;;;;;;-4.46;71.56;99924.67;104337;1315;96753;-69
2021/12/08 11:53:05;;;;;;;33.90;17.90;;;;;;;-4.42;71.59;99918.66;103272;1320;138471;-69
2021/12/08 11:55:37;;;;;;;30.10;16.90;;;;;;;-4.44;71.27;99907.44;103762;1315;112549;-69
2021/12/08 11:58:11;;;;;;;30.60;16.60;;;;;;;-4.47;71.15;99916.02;104407;1315;138725;-68
2021/12/08 12:00:48;;;;;;;31.50;16.80;;;;;;;-4.51;71.23;99910.31;104412;1313;108975;-68
2021/12/08 12:03:20;;;;;;;34.70;16.40;;;;;;;-4.52;71.25;99909.09;103618;1315;97893;-68
2021/12/08 12:05:52;;;;;;;33.40;17.40;;;;;;;-4.55;71.40;99908.36;103184;1319;138414;-68
2021/12/08 12:08:25;;;;;;;29.40;15.50;;;;;;;-4.54;71.35;99907.53;103133;1316;111610;-68